Terminal Aerodrome Forecast
Issued by NWS Binghamton, NY

Home | Current Version | Previous Version | Text Only | Print | Product List | Glossary On
Versions: 1 2 3 4 5 6 7 8 9 10 11 12 13 14
000
FTUS41 KBGM 231721
TAFBGM
TAF
KBGM 231721Z 2318/2418 20010KT P6SM -SHRA BKN025 OVC035
      TEMPO 2318/2322 5SM -SHRA BR OVC015
     FM232200 22008KT 4SM -SHRA BR OVC015
      TEMPO 2404/2408 2SM SHRA OVC008
     FM240800 28007KT P6SM OVC008
     FM241300 30012KT P6SM SCT040=

USA.gov is the U.S. government's official web portal to all federal, state and local government web resources and services.